Time;durP1;ratioP1;P1;durP2;ratioP2;P2;SDS_P1;SDS_P2;PMS_P1;PMS_P2;Temp;Humidity;BMP_temperature;BMP_pressure;BME280_temperature;BME280_humidity;BME280_pressure;Samples;Min_cycle;Max_cycle;Signal;HPM_P1;HPM_P2
2021/12/04 00:01:48;;;;;;;;;21.00;20.00;;;;;3.63;78.00;99155.97;5068066;28;45466;-75
2021/12/04 00:04:20;;;;;;;;;22.00;21.67;;;;;3.60;77.91;99151.66;5035409;28;46175;-75
2021/12/04 00:06:46;;;;;;;;;27.67;24.33;;;;;3.56;78.47;99144.75;5049959;28;45599;-76
2021/12/04 00:09:12;;;;;;;;;26.67;23.67;;;;;3.52;78.08;99137.84;5035866;28;45392;-76
2021/12/04 00:11:40;;;;;;;;;30.67;29.00;;;;;3.51;78.83;99136.16;5033288;28;45830;-76
2021/12/04 00:14:06;;;;;;;;;12.33;8.33;;;;;3.46;78.66;99133.59;5035923;28;45326;-75
2021/12/04 00:16:31;;;;;;;;;27.67;24.67;;;;;3.40;78.94;99124.97;5033833;28;45484;-75
2021/12/04 00:18:57;;;;;;;;;36.00;27.00;;;;;3.35;79.15;99124.19;5022470;28;45669;-75
2021/12/04 00:21:22;;;;;;;;;23.00;22.67;;;;;3.30;80.05;99128.56;5045022;28;45668;-75
2021/12/04 00:23:48;;;;;;;;;26.33;23.33;;;;;3.27;80.28;99137.28;5029562;28;45501;-75
2021/12/04 00:26:13;;;;;;;;;24.00;24.00;;;;;3.26;80.40;99129.47;5029149;28;45517;-75
2021/12/04 00:28:39;;;;;;;;;25.00;23.00;;;;;3.27;80.03;99118.16;5034652;28;45811;-75
2021/12/04 00:31:08;;;;;;;;;32.00;26.00;;;;;3.27;80.60;99118.16;5033035;28;45624;-75
2021/12/04 00:33:36;;;;;;;;;31.67;27.33;;;;;3.24;80.60;99121.66;5035714;28;46225;-75
2021/12/04 00:36:05;;;;;;;;;16.33;16.33;;;;;3.26;80.44;99108.63;5066126;28;45514;-75
2021/12/04 00:49:20;;;;;;;;;22.00;17.00;;;;;3.29;81.43;99100.78;5024644;28;45438;-76
2021/12/04 00:51:50;;;;;;;;;22.00;21.67;;;;;3.29;81.42;99090.34;5032820;28;45394;-76
2021/12/04 00:54:17;;;;;;;;;25.33;20.33;;;;;3.28;81.45;99102.53;5034551;28;45525;-76
2021/12/04 00:56:43;;;;;;;;;28.00;26.00;;;;;3.28;81.64;99099.06;5063862;28;45433;-76
2021/12/04 00:59:10;;;;;;;;;33.33;24.67;;;;;3.26;82.35;99095.59;5034026;28;45413;-76
2021/12/04 01:01:39;;;;;;;;;21.67;21.33;;;;;3.25;82.11;99080.84;5066011;28;45496;-77
2021/12/04 01:04:08;;;;;;;;;25.33;21.33;;;;;3.24;82.22;99081.72;5030708;28;45582;-77
2021/12/04 01:06:33;;;;;;;;;23.00;20.00;;;;;3.24;82.20;99082.59;5034256;28;45401;-77
2021/12/04 01:08:58;;;;;;;;;25.00;22.33;;;;;3.23;82.25;99080.00;5031795;28;46011;-77
2021/12/04 01:11:24;;;;;;;;;18.00;17.67;;;;;3.23;82.10;99080.88;5029880;28;45570;-77
2021/12/04 01:13:49;;;;;;;;;24.00;20.33;;;;;3.22;82.20;99068.72;5032538;28;45515;-77
2021/12/04 01:16:15;;;;;;;;;20.67;20.00;;;;;3.20;82.36;99069.59;5033350;28;45419;-77
2021/12/04 01:18:40;;;;;;;;;19.00;16.67;;;;;3.16;82.33;99055.78;5032403;28;45557;-76
2021/12/04 01:21:06;;;;;;;;;25.00;21.33;;;;;3.14;82.54;99050.59;5034001;28;45417;-77
2021/12/04 01:23:31;;;;;;;;;25.67;24.67;;;;;3.11;82.54;99053.22;5032468;28;46210;-77
2021/12/04 01:25:57;;;;;;;;;26.00;23.33;;;;;3.08;83.08;99053.25;5032468;28;45527;-77
2021/12/04 01:28:22;;;;;;;;;22.33;21.33;;;;;3.07;82.95;99054.13;5034796;28;45713;-77
2021/12/04 01:30:47;;;;;;;;;22.67;19.67;;;;;3.04;82.61;99061.09;5033947;28;45376;-77
2021/12/04 01:33:13;;;;;;;;;21.67;18.00;;;;;3.00;83.26;99064.66;5033412;28;45554;-76
2021/12/04 01:35:38;;;;;;;;;19.33;14.00;;;;;2.99;83.52;99066.38;5029144;28;45483;-77
2021/12/04 01:38:04;;;;;;;;;20.67;19.67;;;;;2.99;83.49;99065.53;5051611;28;45408;-77
2021/12/04 01:40:29;;;;;;;;;29.00;25.67;;;;;2.99;83.68;99060.31;5032381;28;45523;-77
2021/12/04 01:42:55;;;;;;;;;25.67;22.33;;;;;2.99;83.77;99055.09;5038602;28;45562;-77
2021/12/04 01:45:20;;;;;;;;;27.00;24.33;;;;;3.01;84.21;99045.53;5053323;28;45754;-77
2021/12/04 01:47:46;;;;;;;;;21.67;20.67;;;;;3.00;84.41;99041.22;5034423;28;45731;-77
2021/12/04 01:50:12;;;;;;;;;31.33;26.67;;;;;3.01;84.19;99054.22;5033998;28;45225;-76
2021/12/04 01:52:38;;;;;;;;;25.33;24.00;;;;;3.00;84.28;99049.88;5033368;28;45438;-77
2021/12/04 01:55:04;;;;;;;;;23.67;21.33;;;;;2.99;84.76;99050.75;5033847;28;45376;-77
2021/12/04 01:57:31;;;;;;;;;27.67;24.00;;;;;3.00;84.63;99055.09;5039775;28;45331;-77
2021/12/04 01:59:57;;;;;;;;;23.33;23.00;;;;;3.02;84.39;99055.03;5033447;28;45500;-77
2021/12/04 02:02:22;;;;;;;;;17.33;16.67;;;;;3.03;84.08;99038.53;5033705;28;46450;-76
2021/12/04 02:04:48;;;;;;;;;21.00;19.67;;;;;3.02;84.10;99034.22;5033180;28;45444;-77
2021/12/04 02:07:15;;;;;;;;;20.67;19.33;;;;;3.00;84.11;99036.88;5029916;28;45444;-76
2021/12/04 02:09:41;;;;;;;;;21.00;19.33;;;;;3.02;83.67;99023.81;5029902;28;45378;-77
2021/12/04 02:12:07;;;;;;;;;19.67;19.67;;;;;3.01;84.44;99024.72;5033768;28;45538;-76
2021/12/04 02:14:35;;;;;;;;;22.00;21.67;;;;;3.01;84.92;99025.56;5033592;28;45373;-76
2021/12/04 02:17:01;;;;;;;;;24.67;20.67;;;;;3.03;84.84;99029.00;5031415;28;45475;-77
2021/12/04 02:19:27;;;;;;;;;23.00;20.33;;;;;3.04;85.17;99016.84;5032034;28;45390;-76
2021/12/04 02:21:52;;;;;;;;;24.67;23.00;;;;;3.06;85.20;99015.94;5033186;28;46427;-76
2021/12/04 02:24:17;;;;;;;;;19.00;18.33;;;;;3.08;84.96;99008.97;5032085;28;45404;-76
2021/12/04 02:26:46;;;;;;;;;22.33;18.33;;;;;3.10;85.14;99001.16;5036219;28;45313;-76
2021/12/04 02:29:11;;;;;;;;;23.33;18.33;;;;;3.10;84.96;99001.16;5036331;28;45436;-76
2021/12/04 02:31:38;;;;;;;;;20.00;17.33;;;;;3.12;85.32;98997.66;5036553;28;45373;-76
2021/12/04 02:34:04;;;;;;;;;31.00;26.00;;;;;3.14;84.97;98993.28;5022348;28;45327;-76
2021/12/04 02:36:30;;;;;;;;;29.00;25.33;;;;;3.15;85.59;98979.38;5036923;28;45484;-76
2021/12/04 02:38:55;;;;;;;;;28.67;27.67;;;;;3.15;85.16;98981.13;5022521;28;45472;-76
2021/12/04 02:41:22;;;;;;;;;22.00;20.33;;;;;3.16;85.00;98980.25;5035796;28;45511;-76
2021/12/04 02:43:48;;;;;;;;;29.33;26.00;;;;;3.16;85.26;98969.84;5034703;28;45385;-76
2021/12/04 02:46:15;;;;;;;;;23.00;21.00;;;;;3.18;84.94;98972.41;5038078;28;45427;-76
2021/12/04 02:48:46;;;;;;;;;24.00;21.67;;;;;3.19;85.37;98972.38;5038754;28;45529;-77
2021/12/04 02:51:15;;;;;;;;;18.67;18.67;;;;;3.20;85.34;98958.47;5036897;28;45401;-76
2021/12/04 02:53:40;;;;;;;;;25.33;18.00;;;;;3.21;85.96;98947.16;5028675;28;45361;-76
2021/12/04 02:56:06;;;;;;;;;24.67;23.67;;;;;3.23;85.71;98944.53;5036884;28;45319;-77
2021/12/04 02:58:33;;;;;;;;;25.00;24.00;;;;;3.22;85.28;98930.66;5033590;28;45663;-76
2021/12/04 03:01:01;;;;;;;;;28.33;22.67;;;;;3.22;85.82;98938.47;5041576;28;46797;-76
2021/12/04 03:03:27;;;;;;;;;24.67;24.67;;;;;3.23;85.30;98936.72;5031450;28;45499;-76
2021/12/04 03:05:53;;;;;;;;;22.67;20.33;;;;;3.22;85.53;98924.59;5030096;28;45357;-76
2021/12/04 03:08:18;;;;;;;;;20.67;16.00;;;;;3.22;85.48;98920.25;5032873;28;45373;-76
2021/12/04 03:10:47;;;;;;;;;22.00;19.67;;;;;3.23;85.97;98935.00;5026509;28;45480;-76
2021/12/04 03:13:14;;;;;;;;;16.00;15.00;;;;;3.24;85.64;98923.69;5035955;28;45420;-76
2021/12/04 03:15:44;;;;;;;;;20.33;19.67;;;;;3.26;85.42;98908.03;5034188;28;45369;-76
2021/12/04 03:18:09;;;;;;;;;20.00;18.33;;;;;3.25;86.00;98903.72;5035946;28;45575;-76
2021/12/04 03:20:43;;;;;;;;;15.33;15.00;;;;;3.26;86.28;98908.03;5034924;28;45542;-77
2021/12/04 03:23:17;;;;;;;;;25.33;20.33;;;;;3.29;85.76;98900.19;5068349;28;45326;-77
2021/12/04 03:25:46;;;;;;;;;21.67;20.00;;;;;3.28;86.04;98894.13;5032869;28;45467;-76
2021/12/04 03:28:14;;;;;;;;;26.33;20.67;;;;;3.29;85.94;98897.59;5051344;28;45397;-76
2021/12/04 03:30:52;;;;;;;;;26.33;21.67;;;;;3.32;86.52;98900.16;5035770;28;46579;-77
2021/12/04 03:41:16;;;;;;;;;26.00;25.33;;;;;3.40;86.56;98890.47;5024380;28;45223;-76
2021/12/04 03:43:43;;;;;;;;;25.67;20.33;;;;;3.40;86.61;98891.31;5034437;28;45426;-76
2021/12/04 03:46:13;;;;;;;;;32.00;25.00;;;;;3.41;86.85;98885.22;5034408;28;45614;-76
2021/12/04 03:48:50;;;;;;;;;31.00;25.67;;;;;3.44;86.78;98889.53;5034215;28;45486;-76
2021/12/04 03:51:17;;;;;;;;;27.67;24.00;;;;;3.43;86.32;98870.44;5035688;28;45535;-76
2021/12/04 03:53:43;;;;;;;;;22.33;21.67;;;;;3.44;86.63;98881.72;5045095;28;45341;-76
2021/12/04 03:56:10;;;;;;;;;32.33;29.00;;;;;3.45;86.32;98871.28;5031591;28;45452;-76
2021/12/04 03:58:35;;;;;;;;;25.67;25.00;;;;;3.44;86.57;98869.56;5033275;28;45296;-76
2021/12/04 04:01:01;;;;;;;;;28.33;23.33;;;;;3.45;86.40;98878.22;5034848;28;45980;-76
2021/12/04 04:03:27;;;;;;;;;32.33;26.67;;;;;3.45;86.60;98868.66;5063422;28;45485;-76
2021/12/04 04:05:54;;;;;;;;;31.00;27.33;;;;;3.44;86.85;98866.94;5026214;28;45437;-77
2021/12/04 04:08:20;;;;;;;;;29.00;28.67;;;;;3.44;86.92;98863.47;5035899;28;45491;-76
2021/12/04 04:10:46;;;;;;;;;28.33;25.33;;;;;3.45;86.87;98863.47;5054220;28;46253;-76
2021/12/04 04:13:12;;;;;;;;;29.00;23.33;;;;;3.46;86.68;98861.72;5033845;28;45672;-76
2021/12/04 04:15:38;;;;;;;;;30.00;25.00;;;;;3.46;86.81;98854.75;5028942;28;45415;-76
2021/12/04 04:18:05;;;;;;;;;27.00;24.67;;;;;3.48;87.02;98859.94;5032963;28;45420;-76
2021/12/04 04:20:31;;;;;;;;;29.33;27.33;;;;;3.50;87.56;98860.78;5033365;28;47754;-76
2021/12/04 04:22:57;;;;;;;;;23.33;23.33;;;;;3.51;87.18;98859.91;5033727;28;45455;-77
2021/12/04 04:25:22;;;;;;;;;27.33;26.00;;;;;3.50;86.83;98855.56;5034048;28;45591;-76
2021/12/04 04:27:48;;;;;;;;;20.33;16.00;;;;;3.52;87.75;98858.16;5035081;28;45454;-76
2021/12/04 04:30:16;;;;;;;;;29.67;22.67;;;;;3.56;87.75;98839.81;5033850;28;47568;-76
2021/12/04 04:32:43;;;;;;;;;21.33;21.00;;;;;3.59;87.67;98834.56;5035464;28;45373;-76
2021/12/04 04:35:22;;;;;;;;;24.00;20.00;;;;;3.61;87.72;98845.81;5027258;28;45591;-76
2021/12/04 05:02:33;;;;;;;;;31.33;29.00;;;;;3.64;87.48;98806.69;5041037;28;45377;-77
2021/12/04 05:13:02;;;;;;;;;36.00;31.33;;;;;3.66;87.81;98799.69;5036920;28;46049;-76
2021/12/04 05:21:05;;;;;;;;;32.67;27.67;;;;;3.72;87.91;98807.38;5033208;28;45452;-77
2021/12/04 05:23:52;;;;;;;;;37.00;32.00;;;;;3.73;87.85;98798.69;5034698;28;45865;-77
2021/12/04 05:26:25;;;;;;;;;33.33;29.67;;;;;3.76;87.91;98793.41;5032361;28;45566;-77
2021/12/04 05:28:51;;;;;;;;;35.33;30.00;;;;;3.76;88.17;98796.03;5034668;28;45494;-76
2021/12/04 05:31:16;;;;;;;;;34.33;28.00;;;;;3.77;87.87;98795.16;5033762;28;45648;-76
2021/12/04 05:33:42;;;;;;;;;31.33;29.00;;;;;3.78;87.85;98796.00;5033469;28;45462;-76
2021/12/04 05:36:09;;;;;;;;;40.67;35.67;;;;;3.78;87.78;98786.44;5032053;28;45436;-76
2021/12/04 05:38:35;;;;;;;;;37.00;34.00;;;;;3.80;87.81;98789.88;5027049;28;45508;-76
2021/12/04 05:41:02;;;;;;;;;36.00;32.33;;;;;3.79;87.93;98782.94;5033935;28;45302;-76
2021/12/04 05:43:28;;;;;;;;;33.33;30.33;;;;;3.79;88.13;98788.16;5032780;28;46087;-77
2021/12/04 05:46:39;;;;;;;;;30.00;25.33;;;;;3.79;87.80;98777.72;5033858;28;45366;-77
2021/12/04 05:48:59;;;;;;;;;35.33;29.33;;;;;3.79;87.86;98779.47;5028290;28;45455;-76
2021/12/04 05:56:19;;;;;;;;;34.33;29.00;;;;;3.83;87.98;98770.72;5026351;28;45434;-77
2021/12/04 05:58:45;;;;;;;;;40.33;37.00;;;;;3.84;87.83;98756.78;5029532;28;45454;-76
2021/12/04 06:01:11;;;;;;;;;26.00;26.00;;;;;3.84;88.20;98755.03;5035721;28;45500;-76
2021/12/04 06:03:37;;;;;;;;;34.00;31.33;;;;;3.85;88.44;98748.09;5038854;28;47863;-76
2021/12/04 06:06:04;;;;;;;;;35.33;32.33;;;;;3.85;88.18;98748.91;5031888;28;45279;-76
2021/12/04 06:08:30;;;;;;;;;38.00;32.67;;;;;3.86;88.06;98755.00;5032414;28;45394;-76
2021/12/04 06:10:56;;;;;;;;;41.67;37.00;;;;;3.88;87.97;98754.97;5035713;28;45397;-77
2021/12/04 06:13:22;;;;;;;;;31.33;28.33;;;;;3.86;88.09;98768.88;5036137;28;46531;-77
2021/12/04 06:15:48;;;;;;;;;39.33;35.00;;;;;3.87;87.89;98746.28;5051804;28;45625;-77
2021/12/04 06:18:15;;;;;;;;;20.00;14.33;;;;;3.86;87.90;98755.00;5036722;28;45657;-77
2021/12/04 06:23:26;;;;;;;;;47.00;35.67;;;;;3.87;88.11;98746.28;5035126;28;45795;-77
2021/12/04 06:25:51;;;;;;;;;29.67;28.33;;;;;3.86;88.31;98747.16;5056631;28;45443;-77
2021/12/04 06:28:17;;;;;;;;;40.00;35.33;;;;;3.84;88.22;98752.44;5036719;28;45357;-77
2021/12/04 06:30:43;;;;;;;;;41.33;37.00;;;;;3.85;88.33;98753.31;5033678;28;45518;-77
2021/12/04 06:33:12;;;;;;;;;42.33;37.33;;;;;3.85;88.32;98750.69;5036852;28;45547;-77
2021/12/04 06:35:41;;;;;;;;;38.33;35.67;;;;;3.85;88.33;98743.69;5057382;28;45423;-76
2021/12/04 06:38:09;;;;;;;;;39.00;36.33;;;;;3.83;88.41;98732.47;5035115;28;45455;-77
2021/12/04 06:40:36;;;;;;;;;41.67;33.33;;;;;3.82;88.25;98724.66;5029584;28;45626;-77
2021/12/04 06:43:02;;;;;;;;;43.33;35.67;;;;;3.82;88.49;98722.06;5036538;28;46105;-77
2021/12/04 06:45:31;;;;;;;;;42.67;36.00;;;;;3.80;88.16;98718.63;5035721;28;45473;-77
2021/12/04 06:48:03;;;;;;;;;37.67;35.67;;;;;3.80;88.58;98722.09;5058728;28;45282;-77
2021/12/04 06:50:38;;;;;;;;;32.33;31.67;;;;;3.80;88.53;98718.63;5035449;28;45780;-77
2021/12/04 06:53:15;;;;;;;;;48.67;39.00;;;;;3.79;88.44;98703.88;5025044;28;46809;-77
2021/12/04 06:55:45;;;;;;;;;42.33;37.00;;;;;3.78;88.19;98713.44;5033478;28;45571;-77
2021/12/04 06:58:11;;;;;;;;;42.67;37.67;;;;;3.79;88.94;98703.88;5032438;28;45440;-77
2021/12/04 07:00:37;;;;;;;;;29.33;27.67;;;;;3.80;88.59;98708.19;5033895;28;45477;-77
2021/12/04 07:03:02;;;;;;;;;45.67;38.67;;;;;3.82;88.74;98698.59;5046066;28;45476;-78
2021/12/04 07:05:28;;;;;;;;;43.00;37.33;;;;;3.83;88.45;98698.56;5037863;28;45372;-77
2021/12/04 07:07:53;;;;;;;;;32.33;30.00;;;;;3.82;88.42;98688.16;5055399;28;45740;-77
2021/12/04 07:10:18;;;;;;;;;39.33;34.00;;;;;3.82;88.42;98707.28;5032760;28;45698;-77
2021/12/04 07:12:44;;;;;;;;;36.33;33.33;;;;;3.80;88.34;98700.38;5039725;28;46250;-77
2021/12/04 07:15:12;;;;;;;;;41.33;34.33;;;;;3.80;88.10;98700.38;5031334;28;45500;-77
2021/12/04 07:17:38;;;;;;;;;43.33;38.33;;;;;3.78;88.11;98697.78;5033278;28;45716;-78
2021/12/04 07:20:05;;;;;;;;;42.33;32.67;;;;;3.78;88.32;98696.94;5032900;28;45558;-78
2021/12/04 07:22:32;;;;;;;;;35.00;34.00;;;;;3.77;88.42;98684.78;5034930;28;47284;-77
2021/12/04 07:24:58;;;;;;;;;39.33;34.00;;;;;3.78;88.60;98681.28;5032963;28;45468;-77
2021/12/04 07:27:25;;;;;;;;;39.00;33.00;;;;;3.78;88.37;98684.75;5034634;28;45493;-77
2021/12/04 07:29:50;;;;;;;;;39.00;32.33;;;;;3.77;88.58;98683.03;5030244;28;45675;-78
2021/12/04 07:32:16;;;;;;;;;37.67;32.67;;;;;3.79;88.85;98680.41;5027491;28;45908;-77
2021/12/04 07:34:41;;;;;;;;;38.33;32.00;;;;;3.80;88.85;98671.69;5031872;28;45408;-77
2021/12/04 07:37:07;;;;;;;;;42.33;38.33;;;;;3.83;89.29;98661.22;5025041;28;45595;-62
2021/12/04 07:39:32;;;;;;;;;43.00;36.67;;;;;3.94;89.22;98666.19;5033442;28;45531;-68
2021/12/04 07:41:58;;;;;;;;;38.67;36.00;;;;;4.01;88.97;98668.66;5030459;28;45490;-68
2021/12/04 07:44:23;;;;;;;;;44.33;37.33;;;;;4.05;88.78;98659.84;5050166;28;45309;-68
2021/12/04 07:46:49;;;;;;;;;35.33;32.00;;;;;4.09;88.83;98650.22;5034820;28;45310;-69
2021/12/04 07:49:14;;;;;;;;;36.00;32.00;;;;;4.12;88.50;98660.59;5034226;28;45512;-69
2021/12/04 07:51:40;;;;;;;;;44.00;38.00;;;;;4.13;88.33;98671.00;5023902;28;46114;-69
2021/12/04 07:54:05;;;;;;;;;35.67;33.67;;;;;4.16;88.33;98655.28;5035427;28;45230;-69
2021/12/04 07:56:31;;;;;;;;;37.67;33.33;;;;;4.18;88.37;98648.28;5035561;28;45475;-69
2021/12/04 07:58:58;;;;;;;;;46.00;37.67;;;;;4.20;88.40;98650.81;5034472;28;45530;-69
2021/12/04 08:01:23;;;;;;;;;40.00;34.33;;;;;4.25;88.39;98642.91;5034328;28;46341;-69
2021/12/04 08:03:49;;;;;;;;;39.33;37.33;;;;;4.27;88.03;98649.81;5034815;28;45678;-69
2021/12/04 08:06:15;;;;;;;;;43.33;34.00;;;;;4.29;88.16;98648.03;5033338;28;45509;-69
2021/12/04 08:08:40;;;;;;;;;37.00;31.67;;;;;4.31;88.14;98648.00;5045866;28;45426;-69
2021/12/04 08:11:06;;;;;;;;;38.33;35.67;;;;;4.33;88.57;98636.63;5033726;28;47091;-69
2021/12/04 08:13:31;;;;;;;;;44.00;36.33;;;;;4.38;88.41;98629.53;5035545;28;45409;-69
2021/12/04 08:15:57;;;;;;;;;33.00;29.67;;;;;4.42;88.44;98636.41;5035144;28;45454;-69
2021/12/04 08:18:23;;;;;;;;;37.00;31.00;;;;;4.46;87.59;98638.06;5034860;28;45335;-69
2021/12/04 08:20:49;;;;;;;;;32.00;31.33;;;;;4.48;87.63;98630.19;5029240;28;45725;-68
2021/12/04 08:23:14;;;;;;;;;43.33;38.00;;;;;4.49;87.71;98640.59;5034294;28;45359;-69
2021/12/04 08:25:40;;;;;;;;;36.00;33.33;;;;;4.50;87.73;98613.63;5050132;28;45967;-69
2021/12/04 08:28:06;;;;;;;;;47.33;41.00;;;;;4.52;88.00;98610.97;5034513;28;45473;-69
2021/12/04 08:30:34;;;;;;;;;38.33;36.33;;;;;4.53;87.40;98610.06;5033106;28;46548;-69
2021/12/04 08:33:00;;;;;;;;;39.33;32.00;;;;;4.52;87.73;98609.19;5054626;28;45495;-69
2021/12/04 08:35:29;;;;;;;;;41.67;38.00;;;;;4.51;87.56;98604.91;5033097;28;45415;-68
2021/12/04 08:37:58;;;;;;;;;44.00;37.33;;;;;4.55;88.12;98596.06;5032494;28;45701;-68
2021/12/04 08:40:28;;;;;;;;;43.00;39.33;;;;;4.59;88.33;98596.00;5025424;28;46433;-68
2021/12/04 08:42:53;;;;;;;;;42.00;36.33;;;;;4.61;87.76;98591.59;5031308;28;45473;-68
2021/12/04 08:45:19;;;;;;;;;37.00;32.00;;;;;4.61;87.88;98594.22;5028160;28;45432;-68
2021/12/04 08:47:45;;;;;;;;;42.00;37.00;;;;;4.64;87.64;98596.75;5032781;28;45547;-68
2021/12/04 08:50:17;;;;;;;;;30.33;26.67;;;;;4.63;87.77;98585.47;5029657;28;45455;-68
2021/12/04 08:52:44;;;;;;;;;46.33;37.33;;;;;4.67;87.96;98579.28;5030443;28;46224;-68
2021/12/04 08:55:10;;;;;;;;;43.67;34.00;;;;;4.69;87.63;98574.84;5048095;28;45409;-68
2021/12/04 08:57:36;;;;;;;;;36.33;34.33;;;;;4.69;87.64;98584.47;5031906;28;45629;-68
2021/12/04 09:00:05;;;;;;;;;31.67;27.33;;;;;4.68;87.86;98572.28;5032793;28;46068;-68
2021/12/04 09:02:32;;;;;;;;;46.67;38.67;;;;;4.67;87.91;98561.00;5033236;28;45445;-68
2021/12/04 09:04:58;;;;;;;;;45.67;38.00;;;;;4.70;88.11;98562.63;5033319;28;45467;-68
2021/12/04 09:07:23;;;;;;;;;37.67;34.33;;;;;4.72;87.94;98566.94;5034783;28;45579;-68
2021/12/04 09:09:54;;;;;;;;;40.67;33.67;;;;;4.72;87.92;98561.72;5034781;28;45541;-68
2021/12/04 09:12:20;;;;;;;;;42.67;37.67;;;;;4.75;88.18;98560.78;5059691;28;45575;-68
2021/12/04 09:14:46;;;;;;;;;41.67;34.00;;;;;4.77;88.29;98553.78;5033071;28;45470;-68
2021/12/04 09:17:14;;;;;;;;;43.33;36.33;;;;;4.79;88.11;98547.63;5038039;28;45642;-68
2021/12/04 09:19:39;;;;;;;;;37.33;34.67;;;;;4.81;88.13;98555.41;5038961;28;45364;-69
2021/12/04 09:22:10;;;;;;;;;42.00;36.67;;;;;4.82;88.14;98547.53;5037677;28;45508;-68
2021/12/04 09:24:41;;;;;;;;;42.67;36.67;;;;;4.81;87.98;98543.22;5035950;28;45510;-65
2021/12/04 09:59:41;;;;;;;;;33.00;24.67;;;;;4.98;88.85;98521.88;5031909;28;45514;-64
2021/12/04 10:02:14;;;;;;;;;38.00;33.67;;;;;5.01;88.72;98518.31;5026847;28;46169;-64
2021/12/04 10:18:21;;;;;;;;;39.33;32.67;;;;;5.17;88.73;98493.47;5033776;28;45385;-64
2021/12/04 10:34:33;;;;;;;;;44.00;36.67;;;;;5.39;89.28;98483.25;5031426;28;45482;-64
2021/12/04 10:37:13;;;;;;;;;39.67;37.00;;;;;5.43;88.81;98469.19;5033061;28;45413;-65
2021/12/04 10:39:39;;;;;;;;;44.33;37.00;;;;;5.46;89.08;98472.56;5033248;28;45375;-64
2021/12/04 10:42:16;;;;;;;;;47.67;39.00;;;;;5.49;89.02;98467.25;5033665;28;45369;-65
2021/12/04 10:44:48;;;;;;;;;45.33;39.00;;;;;5.54;89.09;98470.56;5033739;28;45470;-65
2021/12/04 10:47:21;;;;;;;;;40.67;35.00;;;;;5.58;89.29;98458.25;5034483;28;45513;-65
2021/12/04 10:52:22;;;;;;;;;47.00;39.00;;;;;5.64;89.40;98457.22;5036848;28;45443;-65
2021/12/04 10:54:52;;;;;;;;;39.33;32.00;;;;;5.69;89.47;98452.72;5036692;28;46561;-64
2021/12/04 11:00:00;;;;;;;;;36.67;35.00;;;;;5.77;88.94;98440.25;5036918;28;45408;-63
2021/12/04 11:02:43;;;;;;;;;53.33;43.67;;;;;5.80;88.89;98448.84;5036057;28;45511;-63
2021/12/04 11:18:38;;;;;;;;;43.33;36.67;;;;;5.82;89.08;98438.34;5036217;28;45429;-64
2021/12/04 11:19:08;;;;;;;;;41.00;38.00;;;;;5.84;88.73;98421.72;5035619;28;45297;-64
2021/12/04 11:24:36;;;;;;;;;48.67;40.67;;;;;5.84;88.82;98416.47;5036267;28;45408;-64
2021/12/04 11:38:09;;;;;;;;;46.33;40.00;;;;;5.84;88.90;98406.00;5035957;28;45359;-63
2021/12/04 11:43:13;;;;;;;;;37.33;35.33;;;;;5.85;89.41;98401.63;5047790;28;45450;-63
2021/12/04 11:48:51;;;;;;;;;31.00;30.67;;;;;5.85;88.95;98412.94;5035221;28;46256;-63
2021/12/04 11:51:22;;;;;;;;;32.67;32.67;;;;;5.85;88.33;98402.50;5038425;28;45525;-64
2021/12/04 11:53:50;;;;;;;;;38.00;34.33;;;;;5.82;88.63;98406.97;5039924;28;45551;-63
2021/12/04 11:56:23;;;;;;;;;39.33;35.00;;;;;5.80;89.51;98399.16;5035948;28;45670;-63
2021/12/04 11:58:50;;;;;;;;;36.00;34.33;;;;;5.82;89.51;98393.88;5034838;28;45403;-63
2021/12/04 12:01:42;;;;;;;;;37.00;33.00;;;;;5.88;89.53;98409.34;5036000;28;45294;-63
2021/12/04 12:04:10;;;;;;;;;37.33;36.00;;;;;5.92;89.57;98403.16;5032631;28;45361;-63
2021/12/04 12:06:45;;;;;;;;;30.67;30.00;;;;;5.96;90.02;98394.31;5035712;28;45393;-64
2021/12/04 12:09:15;;;;;;;;;49.00;37.67;;;;;5.99;89.73;98395.97;5044583;28;45402;-64
2021/12/04 12:11:48;;;;;;;;;43.00;36.00;;;;;6.03;90.45;98387.13;5034249;28;45953;-64
2021/12/04 12:14:15;;;;;;;;;46.33;39.33;;;;;6.07;90.36;98397.41;5035874;28;45512;-64
2021/12/04 12:16:51;;;;;;;;;52.67;41.33;;;;;6.13;90.45;98385.91;5035283;28;45512;-64
2021/12/04 12:19:36;;;;;;;;;69.67;52.33;;;;;6.19;90.82;98378.69;5037982;28;46060;-64
2021/12/04 12:22:21;;;;;;;;;60.67;48.67;;;;;6.27;90.36;98373.19;5035597;28;45454;-64
2021/12/04 12:38:35;;;;;;;;;53.00;43.00;;;;;6.55;90.33;98363.44;5035178;28;45292;-73
2021/12/04 12:41:06;;;;;;;;;51.33;41.67;;;;;6.58;90.25;98368.56;5003423;28;45555;-73
2021/12/04 12:43:53;;;;;;;;;49.67;42.67;;;;;6.61;90.16;98357.13;5035039;28;45400;-73
2021/12/04 12:46:20;;;;;;;;;58.00;42.33;;;;;6.64;90.26;98362.25;5035272;28;45314;-73
2021/12/04 12:48:45;;;;;;;;;56.67;47.00;;;;;6.67;90.02;98346.44;5032670;28;45498;-73
2021/12/04 12:51:11;;;;;;;;;54.00;45.00;;;;;6.70;90.27;98350.72;5034447;28;45326;-75
2021/12/04 12:53:46;;;;;;;;;55.00;39.67;;;;;6.73;90.41;98346.19;5034833;28;45418;-75
2021/12/04 12:56:15;;;;;;;;;41.67;36.33;;;;;6.72;89.94;98360.19;5034908;28;45460;-75
2021/12/04 12:58:58;;;;;;;;;48.67;40.67;;;;;6.77;90.01;98354.81;5034586;28;45464;-75
2021/12/04 13:22:43;;;;;;;;;45.00;36.67;;;;;6.89;89.30;98346.47;5064118;28;45318;-74
2021/12/04 13:25:11;;;;;;;;;42.00;36.00;;;;;6.94;89.73;98352.41;5048869;28;45329;-77
2021/12/04 13:30:12;;;;;;;;;46.33;38.67;;;;;7.00;89.14;98363.53;5048884;28;45458;-72
2021/12/04 13:32:41;;;;;;;;;40.00;37.00;;;;;7.00;88.91;98355.66;5049899;28;45493;-74
2021/12/04 13:35:13;;;;;;;;;46.33;38.00;;;;;7.02;89.11;98352.13;5050348;28;45375;-73
2021/12/04 13:37:39;;;;;;;;;52.67;43.00;;;;;7.02;89.40;98342.50;5050378;28;45426;-73
2021/12/04 13:40:08;;;;;;;;;38.33;35.00;;;;;7.05;89.59;98344.97;5050599;28;45424;-73
2021/12/04 13:42:36;;;;;;;;;34.67;30.33;;;;;7.07;89.84;98332.69;5049830;28;46221;-74
2021/12/04 13:45:06;;;;;;;;;45.33;37.67;;;;;7.11;89.81;98317.69;5049777;28;45490;-73
2021/12/04 13:47:31;;;;;;;;;54.33;43.00;;;;;7.15;89.80;98335.00;5047193;28;45345;-73
2021/12/04 13:49:57;;;;;;;;;57.33;45.33;;;;;7.18;89.79;98332.28;5048384;28;45440;-72
2021/12/04 13:52:25;;;;;;;;;54.00;44.67;;;;;7.20;89.43;98312.97;5047301;28;45986;-72
2021/12/04 13:55:08;;;;;;;;;58.00;44.00;;;;;7.23;89.03;98319.81;5058029;28;45376;-74
2021/12/04 13:57:38;;;;;;;;;53.00;41.67;;;;;7.20;89.10;98312.97;5037507;28;45250;-73
2021/12/04 14:00:04;;;;;;;;;57.00;43.00;;;;;7.20;89.13;98310.34;5058706;28;45459;-74
2021/12/04 14:02:31;;;;;;;;;50.00;41.67;;;;;7.21;89.51;98314.63;5047874;28;46749;-71
2021/12/04 14:05:02;;;;;;;;;50.33;42.00;;;;;7.24;89.56;98306.66;5050034;28;45275;-72
2021/12/04 14:07:28;;;;;;;;;51.33;41.67;;;;;7.28;89.76;98289.91;5050620;28;45553;-70
2021/12/04 14:09:54;;;;;;;;;56.33;45.00;;;;;7.32;89.63;98288.88;5065785;28;45475;-69
2021/12/04 14:12:21;;;;;;;;;49.67;41.33;;;;;7.38;89.24;98279.03;5051330;27;45581;-70
2021/12/04 14:14:47;;;;;;;;;49.00;38.67;;;;;7.35;89.34;98283.50;5059438;28;45496;-70
2021/12/04 14:17:16;;;;;;;;;50.00;40.00;;;;;7.34;89.46;98294.91;5049087;28;45505;-70
2021/12/04 14:19:42;;;;;;;;;48.67;40.67;;;;;7.33;89.66;98289.72;5049777;28;45467;-72
2021/12/04 14:22:10;;;;;;;;;52.00;41.67;;;;;7.35;90.18;98296.63;5036221;28;45512;-70
2021/12/04 14:24:37;;;;;;;;;50.67;38.33;;;;;7.35;89.79;98288.75;5035687;28;45380;-70
2021/12/04 14:27:04;;;;;;;;;53.33;41.33;;;;;7.28;89.82;98292.53;5034956;28;45507;-70
2021/12/04 14:29:41;;;;;;;;;52.67;44.67;;;;;7.25;89.69;98284.78;5036442;28;45396;-70
2021/12/04 14:32:08;;;;;;;;;48.33;39.67;;;;;7.25;90.17;98279.53;5034920;28;45416;-70
2021/12/04 14:34:34;;;;;;;;;51.67;41.00;;;;;7.30;90.78;98274.97;5035698;28;45439;-70
2021/12/04 14:37:01;;;;;;;;;52.00;41.33;;;;;7.35;91.04;98269.53;5036215;28;45428;-70
2021/12/04 14:39:27;;;;;;;;;49.33;39.33;;;;;7.39;90.60;98262.38;5036518;28;45518;-71
2021/12/04 14:41:52;;;;;;;;;57.00;46.67;;;;;7.41;90.82;98268.41;5034068;28;45356;-70
2021/12/04 14:44:18;;;;;;;;;56.33;42.33;;;;;7.44;91.08;98265.69;5036416;28;45509;-70
2021/12/04 14:46:44;;;;;;;;;57.00;46.67;;;;;7.48;90.99;98272.50;5037561;28;45530;-71